sensor_id;sensor_type;location;lat;lon;timestamp;pressure;altitude;pressure_sealevel;temperature
7389;BMP180;3735;50.136;11.062;2023-10-08T00:02:05;98677.00;;;16.10
7389;BMP180;3735;50.136;11.062;2023-10-08T00:04:32;98671.00;;;16.20
7389;BMP180;3735;50.136;11.062;2023-10-08T00:07:04;98674.00;;;16.20
7389;BMP180;3735;50.136;11.062;2023-10-08T00:09:34;98669.00;;;16.30
7389;BMP180;3735;50.136;11.062;2023-10-08T00:12:04;98657.00;;;16.20
7389;BMP180;3735;50.136;11.062;2023-10-08T00:14:30;98656.00;;;16.20
7389;BMP180;3735;50.136;11.062;2023-10-08T00:16:58;98665.00;;;16.20
7389;BMP180;3735;50.136;11.062;2023-10-08T00:19:25;98670.00;;;16.20
7389;BMP180;3735;50.136;11.062;2023-10-08T00:21:51;98668.00;;;16.20
7389;BMP180;3735;50.136;11.062;2023-10-08T00:24:18;98668.00;;;16.20
7389;BMP180;3735;50.136;11.062;2023-10-08T00:26:52;98653.00;;;16.20
7389;BMP180;3735;50.136;11.062;2023-10-08T00:29:20;98650.00;;;16.10
7389;BMP180;3735;50.136;11.062;2023-10-08T00:31:48;98634.00;;;16.20
7389;BMP180;3735;50.136;11.062;2023-10-08T00:34:19;98656.00;;;16.20
7389;BMP180;3735;50.136;11.062;2023-10-08T00:36:47;98655.00;;;16.20
7389;BMP180;3735;50.136;11.062;2023-10-08T00:39:13;98661.00;;;16.20
7389;BMP180;3735;50.136;11.062;2023-10-08T00:41:45;98657.00;;;16.20
7389;BMP180;3735;50.136;11.062;2023-10-08T00:44:13;98665.00;;;16.10
7389;BMP180;3735;50.136;11.062;2023-10-08T00:46:42;98670.00;;;16.20
7389;BMP180;3735;50.136;11.062;2023-10-08T00:49:20;98663.00;;;16.10
7389;BMP180;3735;50.136;11.062;2023-10-08T00:52:08;98674.00;;;16.10
7389;BMP180;3735;50.136;11.062;2023-10-08T00:54:39;98669.00;;;16.10
7389;BMP180;3735;50.136;11.062;2023-10-08T00:57:23;98660.00;;;16.10
7389;BMP180;3735;50.136;11.062;2023-10-08T00:59:51;98652.00;;;16.10
7389;BMP180;3735;50.136;11.062;2023-10-08T01:02:24;98643.00;;;16.10
7389;BMP180;3735;50.136;11.062;2023-10-08T01:04:51;98644.00;;;15.80
7389;BMP180;3735;50.136;11.062;2023-10-08T01:07:18;98660.00;;;16.10
7389;BMP180;3735;50.136;11.062;2023-10-08T01:09:44;98662.00;;;16.10
7389;BMP180;3735;50.136;11.062;2023-10-08T01:12:25;98653.00;;;16.00
7389;BMP180;3735;50.136;11.062;2023-10-08T01:14:58;98667.00;;;16.00
7389;BMP180;3735;50.136;11.062;2023-10-08T01:17:30;98657.00;;;16.00
7389;BMP180;3735;50.136;11.062;2023-10-08T01:19:58;98652.00;;;16.00
7389;BMP180;3735;50.136;11.062;2023-10-08T01:22:45;98648.00;;;16.00
7389;BMP180;3735;50.136;11.062;2023-10-08T01:25:11;98653.00;;;16.00
7389;BMP180;3735;50.136;11.062;2023-10-08T01:27:45;98653.00;;;15.90
7389;BMP180;3735;50.136;11.062;2023-10-08T01:30:12;98659.00;;;15.90
7389;BMP180;3735;50.136;11.062;2023-10-08T01:32:44;98656.00;;;15.80
7389;BMP180;3735;50.136;11.062;2023-10-08T01:35:10;98655.00;;;15.80
7389;BMP180;3735;50.136;11.062;2023-10-08T01:37:52;98647.00;;;15.80
7389;BMP180;3735;50.136;11.062;2023-10-08T01:40:21;98651.00;;;15.70
7389;BMP180;3735;50.136;11.062;2023-10-08T01:42:51;98650.00;;;15.60
7389;BMP180;3735;50.136;11.062;2023-10-08T01:45:17;98660.00;;;15.50
7389;BMP180;3735;50.136;11.062;2023-10-08T01:47:45;98656.00;;;15.50
7389;BMP180;3735;50.136;11.062;2023-10-08T01:50:10;98658.00;;;15.50
7389;BMP180;3735;50.136;11.062;2023-10-08T01:52:51;98660.00;;;15.40
7389;BMP180;3735;50.136;11.062;2023-10-08T01:55:17;98661.00;;;15.30
7389;BMP180;3735;50.136;11.062;2023-10-08T01:57:45;98656.00;;;15.40
7389;BMP180;3735;50.136;11.062;2023-10-08T02:00:12;98646.00;;;15.40
7389;BMP180;3735;50.136;11.062;2023-10-08T02:02:40;98652.00;;;15.50
7389;BMP180;3735;50.136;11.062;2023-10-08T02:05:09;98658.00;;;15.50
7389;BMP180;3735;50.136;11.062;2023-10-08T02:07:35;98661.00;;;15.50
7389;BMP180;3735;50.136;11.062;2023-10-08T02:10:00;98662.00;;;15.60
7389;BMP180;3735;50.136;11.062;2023-10-08T02:12:26;98672.00;;;15.60
7389;BMP180;3735;50.136;11.062;2023-10-08T02:14:55;98664.00;;;15.60
7389;BMP180;3735;50.136;11.062;2023-10-08T02:17:22;98656.00;;;15.60
7389;BMP180;3735;50.136;11.062;2023-10-08T02:19:48;98671.00;;;15.60
7389;BMP180;3735;50.136;11.062;2023-10-08T02:22:13;98669.00;;;15.60
7389;BMP180;3735;50.136;11.062;2023-10-08T02:24:39;98673.00;;;15.70
7389;BMP180;3735;50.136;11.062;2023-10-08T02:27:06;98681.00;;;15.70
7389;BMP180;3735;50.136;11.062;2023-10-08T02:29:33;98673.00;;;15.60
7389;BMP180;3735;50.136;11.062;2023-10-08T02:31:59;98667.00;;;15.60
7389;BMP180;3735;50.136;11.062;2023-10-08T02:34:25;98666.00;;;15.60
7389;BMP180;3735;50.136;11.062;2023-10-08T02:36:52;98679.00;;;15.50
7389;BMP180;3735;50.136;11.062;2023-10-08T02:39:17;98686.00;;;15.60
7389;BMP180;3735;50.136;11.062;2023-10-08T02:41:53;98683.00;;;15.50
7389;BMP180;3735;50.136;11.062;2023-10-08T02:44:22;98677.00;;;15.50
7389;BMP180;3735;50.136;11.062;2023-10-08T02:46:49;98678.00;;;15.50
7389;BMP180;3735;50.136;11.062;2023-10-08T02:49:17;98687.00;;;15.40
7389;BMP180;3735;50.136;11.062;2023-10-08T02:51:48;98680.00;;;15.40
7389;BMP180;3735;50.136;11.062;2023-10-08T02:54:20;98696.00;;;15.30
7389;BMP180;3735;50.136;11.062;2023-10-08T02:56:52;98709.00;;;15.20
7389;BMP180;3735;50.136;11.062;2023-10-08T02:59:33;98718.00;;;15.20
7389;BMP180;3735;50.136;11.062;2023-10-08T03:02:10;98726.00;;;15.20
7389;BMP180;3735;50.136;11.062;2023-10-08T03:04:48;98729.00;;;15.10
7389;BMP180;3735;50.136;11.062;2023-10-08T03:07:17;98726.00;;;15.20
7389;BMP180;3735;50.136;11.062;2023-10-08T03:09:58;98734.00;;;15.20
7389;BMP180;3735;50.136;11.062;2023-10-08T03:12:44;98734.00;;;15.20
7389;BMP180;3735;50.136;11.062;2023-10-08T03:15:13;98726.00;;;15.20
7389;BMP180;3735;50.136;11.062;2023-10-08T03:17:43;98726.00;;;15.30
7389;BMP180;3735;50.136;11.062;2023-10-08T03:20:18;98725.00;;;15.30
7389;BMP180;3735;50.136;11.062;2023-10-08T03:23:02;98728.00;;;15.30
7389;BMP180;3735;50.136;11.062;2023-10-08T03:25:36;98718.00;;;15.40
7389;BMP180;3735;50.136;11.062;2023-10-08T03:28:10;98716.00;;;15.40
7389;BMP180;3735;50.136;11.062;2023-10-08T03:30:39;98725.00;;;15.40
7389;BMP180;3735;50.136;11.062;2023-10-08T03:33:21;98734.00;;;15.50
7389;BMP180;3735;50.136;11.062;2023-10-08T03:35:52;98736.00;;;15.60
7389;BMP180;3735;50.136;11.062;2023-10-08T03:38:19;98738.00;;;15.60
7389;BMP180;3735;50.136;11.062;2023-10-08T03:40:56;98748.00;;;15.50
7389;BMP180;3735;50.136;11.062;2023-10-08T03:43:27;98742.00;;;15.50
7389;BMP180;3735;50.136;11.062;2023-10-08T03:46:11;98740.00;;;15.50
7389;BMP180;3735;50.136;11.062;2023-10-08T03:48:43;98731.00;;;15.50
7389;BMP180;3735;50.136;11.062;2023-10-08T03:51:12;98733.00;;;15.50
7389;BMP180;3735;50.136;11.062;2023-10-08T03:53:41;98730.00;;;15.50
7389;BMP180;3735;50.136;11.062;2023-10-08T03:56:26;98732.00;;;15.50
7389;BMP180;3735;50.136;11.062;2023-10-08T03:58:55;98739.00;;;15.50
7389;BMP180;3735;50.136;11.062;2023-10-08T04:01:24;98725.00;;;15.50
7389;BMP180;3735;50.136;11.062;2023-10-08T04:03:50;98730.00;;;15.50
7389;BMP180;3735;50.136;11.062;2023-10-08T04:06:16;98727.00;;;15.50
7389;BMP180;3735;50.136;11.062;2023-10-08T04:08:41;98749.00;;;15.60
7389;BMP180;3735;50.136;11.062;2023-10-08T04:11:24;98750.00;;;15.50
7389;BMP180;3735;50.136;11.062;2023-10-08T04:13:58;98733.00;;;15.50
7389;BMP180;3735;50.136;11.062;2023-10-08T04:16:28;98735.00;;;15.50
7389;BMP180;3735;50.136;11.062;2023-10-08T04:18:57;98730.00;;;15.60
7389;BMP180;3735;50.136;11.062;2023-10-08T04:21:29;98719.00;;;15.50
7389;BMP180;3735;50.136;11.062;2023-10-08T04:23:55;98725.00;;;15.60
7389;BMP180;3735;50.136;11.062;2023-10-08T04:26:26;98718.00;;;15.60
7389;BMP180;3735;50.136;11.062;2023-10-08T04:28:56;98721.00;;;15.60
7389;BMP180;3735;50.136;11.062;2023-10-08T04:31:31;98714.00;;;15.60
7389;BMP180;3735;50.136;11.062;2023-10-08T04:34:09;98702.00;;;15.50
7389;BMP180;3735;50.136;11.062;2023-10-08T04:36:46;98704.00;;;15.50
7389;BMP180;3735;50.136;11.062;2023-10-08T04:39:14;98696.00;;;15.60
7389;BMP180;3735;50.136;11.062;2023-10-08T04:41:47;98689.00;;;15.60
7389;BMP180;3735;50.136;11.062;2023-10-08T04:44:17;98687.00;;;15.50
7389;BMP180;3735;50.136;11.062;2023-10-08T04:46:44;98691.00;;;15.50
7389;BMP180;3735;50.136;11.062;2023-10-08T04:49:14;98693.00;;;15.50
7389;BMP180;3735;50.136;11.062;2023-10-08T04:52:01;98683.00;;;15.60
7389;BMP180;3735;50.136;11.062;2023-10-08T04:54:34;98669.00;;;15.60
7389;BMP180;3735;50.136;11.062;2023-10-08T04:57:07;98663.00;;;15.60
7389;BMP180;3735;50.136;11.062;2023-10-08T04:59:44;98662.00;;;15.60
7389;BMP180;3735;50.136;11.062;2023-10-08T05:02:12;98660.00;;;15.70
7389;BMP180;3735;50.136;11.062;2023-10-08T05:04:41;98675.00;;;15.70
7389;BMP180;3735;50.136;11.062;2023-10-08T05:07:12;98683.00;;;15.60
7389;BMP180;3735;50.136;11.062;2023-10-08T05:10:07;98678.00;;;15.60
7389;BMP180;3735;50.136;11.062;2023-10-08T05:12:33;98678.00;;;15.60
7389;BMP180;3735;50.136;11.062;2023-10-08T05:15:18;98676.00;;;15.60
7389;BMP180;3735;50.136;11.062;2023-10-08T05:17:58;98668.00;;;15.60
7389;BMP180;3735;50.136;11.062;2023-10-08T05:20:38;98656.00;;;15.60
7389;BMP180;3735;50.136;11.062;2023-10-08T05:23:19;98633.00;;;15.60
7389;BMP180;3735;50.136;11.062;2023-10-08T05:26:08;98642.00;;;15.40
7389;BMP180;3735;50.136;11.062;2023-10-08T05:28:38;98688.00;;;15.30
7389;BMP180;3735;50.136;11.062;2023-10-08T05:31:14;98674.00;;;15.30
7389;BMP180;3735;50.136;11.062;2023-10-08T05:33:43;98661.00;;;15.40
7389;BMP180;3735;50.136;11.062;2023-10-08T05:36:41;98659.00;;;15.40
7389;BMP180;3735;50.136;11.062;2023-10-08T05:39:25;98668.00;;;15.40
7389;BMP180;3735;50.136;11.062;2023-10-08T05:42:08;98653.00;;;15.40
7389;BMP180;3735;50.136;11.062;2023-10-08T05:44:57;98665.00;;;15.40
7389;BMP180;3735;50.136;11.062;2023-10-08T05:47:35;98678.00;;;15.50
7389;BMP180;3735;50.136;11.062;2023-10-08T05:50:03;98696.00;;;15.50
7389;BMP180;3735;50.136;11.062;2023-10-08T05:52:55;98703.00;;;15.40
7389;BMP180;3735;50.136;11.062;2023-10-08T05:55:25;98702.00;;;15.40
7389;BMP180;3735;50.136;11.062;2023-10-08T05:58:09;98729.00;;;15.40
7389;BMP180;3735;50.136;11.062;2023-10-08T06:00:46;98745.00;;;15.40
7389;BMP180;3735;50.136;11.062;2023-10-08T06:03:18;98745.00;;;15.40
7389;BMP180;3735;50.136;11.062;2023-10-08T06:06:02;98752.00;;;15.40
7389;BMP180;3735;50.136;11.062;2023-10-08T06:08:49;98750.00;;;15.50
7389;BMP180;3735;50.136;11.062;2023-10-08T06:11:34;98745.00;;;15.50
7389;BMP180;3735;50.136;11.062;2023-10-08T06:14:11;98754.00;;;15.50
7389;BMP180;3735;50.136;11.062;2023-10-08T06:16:45;98770.00;;;15.50
7389;BMP180;3735;50.136;11.062;2023-10-08T06:19:14;98768.00;;;15.60
7389;BMP180;3735;50.136;11.062;2023-10-08T06:21:42;98765.00;;;15.60
7389;BMP180;3735;50.136;11.062;2023-10-08T06:24:09;98787.00;;;15.70
7389;BMP180;3735;50.136;11.062;2023-10-08T06:26:39;98796.00;;;15.70
7389;BMP180;3735;50.136;11.062;2023-10-08T06:29:12;98794.00;;;15.60
7389;BMP180;3735;50.136;11.062;2023-10-08T06:31:57;98774.00;;;15.60
7389;BMP180;3735;50.136;11.062;2023-10-08T06:34:28;98746.00;;;15.60
7389;BMP180;3735;50.136;11.062;2023-10-08T06:36:57;98727.00;;;15.60
7389;BMP180;3735;50.136;11.062;2023-10-08T06:39:24;98721.00;;;15.60
7389;BMP180;3735;50.136;11.062;2023-10-08T06:42:13;98720.00;;;15.60
7389;BMP180;3735;50.136;11.062;2023-10-08T06:44:44;98713.00;;;15.70
7389;BMP180;3735;50.136;11.062;2023-10-08T06:47:13;98715.00;;;15.70
7389;BMP180;3735;50.136;11.062;2023-10-08T06:49:42;98732.00;;;15.80
7389;BMP180;3735;50.136;11.062;2023-10-08T06:52:09;98743.00;;;16.00
7389;BMP180;3735;50.136;11.062;2023-10-08T06:54:38;98764.00;;;16.20
7389;BMP180;3735;50.136;11.062;2023-10-08T06:57:04;98781.00;;;16.40
7389;BMP180;3735;50.136;11.062;2023-10-08T06:59:29;98784.00;;;16.50
7389;BMP180;3735;50.136;11.062;2023-10-08T07:01:57;98787.00;;;16.60
7389;BMP180;3735;50.136;11.062;2023-10-08T07:04:24;98811.00;;;16.60
7389;BMP180;3735;50.136;11.062;2023-10-08T07:06:50;98811.00;;;16.70
7389;BMP180;3735;50.136;11.062;2023-10-08T07:09:18;98817.00;;;16.60
7389;BMP180;3735;50.136;11.062;2023-10-08T07:11:58;98818.00;;;16.60
7389;BMP180;3735;50.136;11.062;2023-10-08T07:14:30;98829.00;;;16.70
7389;BMP180;3735;50.136;11.062;2023-10-08T07:16:59;98836.00;;;16.70
7389;BMP180;3735;50.136;11.062;2023-10-08T07:19:30;98836.00;;;16.70
7389;BMP180;3735;50.136;11.062;2023-10-08T07:22:07;98835.00;;;16.70
7389;BMP180;3735;50.136;11.062;2023-10-08T07:24:44;98837.00;;;16.70
7389;BMP180;3735;50.136;11.062;2023-10-08T07:27:17;98849.00;;;17.00
7389;BMP180;3735;50.136;11.062;2023-10-08T07:29:48;98840.00;;;17.40
7389;BMP180;3735;50.136;11.062;2023-10-08T07:32:13;98826.00;;;17.70
7389;BMP180;3735;50.136;11.062;2023-10-08T07:34:44;98844.00;;;17.60
7389;BMP180;3735;50.136;11.062;2023-10-08T07:37:10;98846.00;;;17.70
7389;BMP180;3735;50.136;11.062;2023-10-08T07:39:37;98860.00;;;17.70
7389;BMP180;3735;50.136;11.062;2023-10-08T07:42:12;98859.00;;;18.60
7389;BMP180;3735;50.136;11.062;2023-10-08T07:44:38;98857.00;;;19.80
7389;BMP180;3735;50.136;11.062;2023-10-08T07:47:06;98864.00;;;20.20
7389;BMP180;3735;50.136;11.062;2023-10-08T07:49:41;98847.00;;;20.10
7389;BMP180;3735;50.136;11.062;2023-10-08T07:52:10;98838.00;;;19.70
7389;BMP180;3735;50.136;11.062;2023-10-08T07:54:41;98831.00;;;19.20
7389;BMP180;3735;50.136;11.062;2023-10-08T07:57:06;98804.00;;;18.40
7389;BMP180;3735;50.136;11.062;2023-10-08T08:02:14;98770.00;;;17.50
7389;BMP180;3735;50.136;11.062;2023-10-08T08:04:41;98785.00;;;17.50
7389;BMP180;3735;50.136;11.062;2023-10-08T08:07:16;98777.00;;;17.60
7389;BMP180;3735;50.136;11.062;2023-10-08T08:09:47;98802.00;;;17.50
7389;BMP180;3735;50.136;11.062;2023-10-08T08:12:21;98800.00;;;17.30
7389;BMP180;3735;50.136;11.062;2023-10-08T08:14:47;98794.00;;;17.40
7389;BMP180;3735;50.136;11.062;2023-10-08T08:17:18;98796.00;;;17.30
7389;BMP180;3735;50.136;11.062;2023-10-08T08:19:46;98807.00;;;17.40
7389;BMP180;3735;50.136;11.062;2023-10-08T08:22:18;98808.00;;;17.70
7389;BMP180;3735;50.136;11.062;2023-10-08T08:24:54;98803.00;;;17.80
7389;BMP180;3735;50.136;11.062;2023-10-08T08:27:44;98799.00;;;18.20
7389;BMP180;3735;50.136;11.062;2023-10-08T08:30:12;98811.00;;;18.50
7389;BMP180;3735;50.136;11.062;2023-10-08T08:32:42;98830.00;;;18.50
7389;BMP180;3735;50.136;11.062;2023-10-08T08:35:13;98837.00;;;18.40
7389;BMP180;3735;50.136;11.062;2023-10-08T08:37:43;98844.00;;;18.20
7389;BMP180;3735;50.136;11.062;2023-10-08T08:40:10;98850.00;;;18.10
7389;BMP180;3735;50.136;11.062;2023-10-08T08:42:49;98854.00;;;18.10
7389;BMP180;3735;50.136;11.062;2023-10-08T08:45:21;98862.00;;;17.90
7389;BMP180;3735;50.136;11.062;2023-10-08T08:47:47;98861.00;;;18.00
7389;BMP180;3735;50.136;11.062;2023-10-08T08:50:13;98872.00;;;18.00
7389;BMP180;3735;50.136;11.062;2023-10-08T08:52:40;98880.00;;;18.00
7389;BMP180;3735;50.136;11.062;2023-10-08T08:55:07;98895.00;;;17.90
7389;BMP180;3735;50.136;11.062;2023-10-08T08:57:48;98889.00;;;17.90
7389;BMP180;3735;50.136;11.062;2023-10-08T09:00:18;98896.00;;;17.80
7389;BMP180;3735;50.136;11.062;2023-10-08T09:02:45;98898.00;;;17.80
7389;BMP180;3735;50.136;11.062;2023-10-08T09:05:13;98899.00;;;17.90
7389;BMP180;3735;50.136;11.062;2023-10-08T09:08:05;98917.00;;;18.00
7389;BMP180;3735;50.136;11.062;2023-10-08T09:10:37;98915.00;;;18.10
7389;BMP180;3735;50.136;11.062;2023-10-08T09:13:05;98911.00;;;18.00
7389;BMP180;3735;50.136;11.062;2023-10-08T09:15:32;98915.00;;;18.20
7389;BMP180;3735;50.136;11.062;2023-10-08T09:17:59;98917.00;;;18.10
7389;BMP180;3735;50.136;11.062;2023-10-08T09:20:36;98911.00;;;18.10
7389;BMP180;3735;50.136;11.062;2023-10-08T09:23:13;98908.00;;;18.00
7389;BMP180;3735;50.136;11.062;2023-10-08T09:25:46;98915.00;;;17.90
7389;BMP180;3735;50.136;11.062;2023-10-08T09:28:27;98915.00;;;18.00
7389;BMP180;3735;50.136;11.062;2023-10-08T09:30:54;98910.00;;;17.90
7389;BMP180;3735;50.136;11.062;2023-10-08T09:33:24;98923.00;;;17.80
7389;BMP180;3735;50.136;11.062;2023-10-08T09:35:52;98937.00;;;17.80
7389;BMP180;3735;50.136;11.062;2023-10-08T09:38:22;98937.00;;;17.70
7389;BMP180;3735;50.136;11.062;2023-10-08T09:40:49;98946.00;;;17.60
7389;BMP180;3735;50.136;11.062;2023-10-08T09:43:16;98966.00;;;17.70
7389;BMP180;3735;50.136;11.062;2023-10-08T09:46:11;98977.00;;;17.30
7389;BMP180;3735;50.136;11.062;2023-10-08T09:48:41;98980.00;;;16.60
7389;BMP180;3735;50.136;11.062;2023-10-08T09:51:11;98986.00;;;16.40
7389;BMP180;3735;50.136;11.062;2023-10-08T09:54:07;99002.00;;;16.00
7389;BMP180;3735;50.136;11.062;2023-10-08T09:56:36;98993.00;;;15.60
7389;BMP180;3735;50.136;11.062;2023-10-08T09:59:04;98990.00;;;15.20
7389;BMP180;3735;50.136;11.062;2023-10-08T10:01:31;99002.00;;;14.90
7389;BMP180;3735;50.136;11.062;2023-10-08T10:04:00;99015.00;;;14.80
7389;BMP180;3735;50.136;11.062;2023-10-08T10:06:28;99026.00;;;14.70
7389;BMP180;3735;50.136;11.062;2023-10-08T10:08:56;99038.00;;;14.60
7389;BMP180;3735;50.136;11.062;2023-10-08T10:11:29;99036.00;;;14.50
7389;BMP180;3735;50.136;11.062;2023-10-08T10:14:00;99011.00;;;14.50
7389;BMP180;3735;50.136;11.062;2023-10-08T10:16:26;99023.00;;;14.50
7389;BMP180;3735;50.136;11.062;2023-10-08T10:18:56;99040.00;;;14.40
7389;BMP180;3735;50.136;11.062;2023-10-08T10:21:30;99027.00;;;14.40
7389;BMP180;3735;50.136;11.062;2023-10-08T10:23:57;99013.00;;;14.50
7389;BMP180;3735;50.136;11.062;2023-10-08T10:26:25;99038.00;;;14.50
7389;BMP180;3735;50.136;11.062;2023-10-08T10:32:01;99016.00;;;14.50
7389;BMP180;3735;50.136;11.062;2023-10-08T10:34:28;99015.00;;;14.50
7389;BMP180;3735;50.136;11.062;2023-10-08T10:36:56;99008.00;;;14.60
7389;BMP180;3735;50.136;11.062;2023-10-08T10:39:43;99017.00;;;14.60
7389;BMP180;3735;50.136;11.062;2023-10-08T10:42:11;99030.00;;;14.60
7389;BMP180;3735;50.136;11.062;2023-10-08T10:44:48;99029.00;;;14.70
7389;BMP180;3735;50.136;11.062;2023-10-08T10:47:19;99058.00;;;14.70
7389;BMP180;3735;50.136;11.062;2023-10-08T10:49:50;99061.00;;;14.80
7389;BMP180;3735;50.136;11.062;2023-10-08T10:52:26;99071.00;;;14.70
7389;BMP180;3735;50.136;11.062;2023-10-08T10:55:11;99088.00;;;14.70
7389;BMP180;3735;50.136;11.062;2023-10-08T10:57:47;99081.00;;;14.60
7389;BMP180;3735;50.136;11.062;2023-10-08T11:00:36;99072.00;;;14.70
7389;BMP180;3735;50.136;11.062;2023-10-08T11:03:04;99070.00;;;14.80
7389;BMP180;3735;50.136;11.062;2023-10-08T11:06:01;99072.00;;;14.70
7389;BMP180;3735;50.136;11.062;2023-10-08T11:08:41;99077.00;;;14.60
7389;BMP180;3735;50.136;11.062;2023-10-08T11:11:11;99100.00;;;14.50
7389;BMP180;3735;50.136;11.062;2023-10-08T11:13:37;99094.00;;;14.40
7389;BMP180;3735;50.136;11.062;2023-10-08T11:16:06;99084.00;;;14.40
7389;BMP180;3735;50.136;11.062;2023-10-08T11:18:44;99084.00;;;14.30
7389;BMP180;3735;50.136;11.062;2023-10-08T11:21:12;99097.00;;;14.10
7389;BMP180;3735;50.136;11.062;2023-10-08T11:23:52;99111.00;;;13.90
7389;BMP180;3735;50.136;11.062;2023-10-08T11:26:20;99128.00;;;13.90
7389;BMP180;3735;50.136;11.062;2023-10-08T11:28:58;99134.00;;;13.80
7389;BMP180;3735;50.136;11.062;2023-10-08T11:31:28;99145.00;;;13.40
7389;BMP180;3735;50.136;11.062;2023-10-08T11:34:04;99144.00;;;13.50
7389;BMP180;3735;50.136;11.062;2023-10-08T11:36:36;99143.00;;;13.40
7389;BMP180;3735;50.136;11.062;2023-10-08T11:39:15;99132.00;;;13.30
7389;BMP180;3735;50.136;11.062;2023-10-08T11:42:00;99108.00;;;13.20
7389;BMP180;3735;50.136;11.062;2023-10-08T11:44:42;99089.00;;;13.10
7389;BMP180;3735;50.136;11.062;2023-10-08T11:47:09;99078.00;;;13.10
7389;BMP180;3735;50.136;11.062;2023-10-08T11:49:39;99051.00;;;13.30
7389;BMP180;3735;50.136;11.062;2023-10-08T11:52:13;99044.00;;;13.60
7389;BMP180;3735;50.136;11.062;2023-10-08T11:54:44;99069.00;;;13.60
7389;BMP180;3735;50.136;11.062;2023-10-08T11:57:10;99073.00;;;13.60
7389;BMP180;3735;50.136;11.062;2023-10-08T11:59:37;99090.00;;;13.50
7389;BMP180;3735;50.136;11.062;2023-10-08T12:02:09;99087.00;;;13.40
7389;BMP180;3735;50.136;11.062;2023-10-08T12:04:42;99106.00;;;13.30
7389;BMP180;3735;50.136;11.062;2023-10-08T12:07:11;99113.00;;;13.30
7389;BMP180;3735;50.136;11.062;2023-10-08T12:09:36;99124.00;;;13.20
7389;BMP180;3735;50.136;11.062;2023-10-08T12:12:05;99121.00;;;13.10
7389;BMP180;3735;50.136;11.062;2023-10-08T12:14:36;99124.00;;;13.10
7389;BMP180;3735;50.136;11.062;2023-10-08T12:17:04;99121.00;;;13.20
7389;BMP180;3735;50.136;11.062;2023-10-08T12:19:37;99122.00;;;13.30
7389;BMP180;3735;50.136;11.062;2023-10-08T12:22:06;99110.00;;;13.40
7389;BMP180;3735;50.136;11.062;2023-10-08T12:24:34;99120.00;;;13.40
7389;BMP180;3735;50.136;11.062;2023-10-08T12:27:00;99118.00;;;13.60
7389;BMP180;3735;50.136;11.062;2023-10-08T12:29:28;99118.00;;;13.60
7389;BMP180;3735;50.136;11.062;2023-10-08T12:31:54;99109.00;;;13.80
7389;BMP180;3735;50.136;11.062;2023-10-08T12:34:20;99111.00;;;13.80
7389;BMP180;3735;50.136;11.062;2023-10-08T12:36:48;99123.00;;;13.90
7389;BMP180;3735;50.136;11.062;2023-10-08T12:39:14;99129.00;;;13.70
7389;BMP180;3735;50.136;11.062;2023-10-08T12:41:44;99123.00;;;13.90
7389;BMP180;3735;50.136;11.062;2023-10-08T12:44:11;99120.00;;;13.90
7389;BMP180;3735;50.136;11.062;2023-10-08T12:46:37;99107.00;;;14.00
7389;BMP180;3735;50.136;11.062;2023-10-08T12:49:06;99104.00;;;14.10
7389;BMP180;3735;50.136;11.062;2023-10-08T12:51:32;99107.00;;;14.20
7389;BMP180;3735;50.136;11.062;2023-10-08T12:54:00;99121.00;;;14.20
7389;BMP180;3735;50.136;11.062;2023-10-08T12:56:47;99116.00;;;14.00
7389;BMP180;3735;50.136;11.062;2023-10-08T12:59:15;99122.00;;;14.00
7389;BMP180;3735;50.136;11.062;2023-10-08T13:01:51;99126.00;;;14.00
7389;BMP180;3735;50.136;11.062;2023-10-08T13:04:20;99115.00;;;13.90
7389;BMP180;3735;50.136;11.062;2023-10-08T13:06:58;99117.00;;;13.90
7389;BMP180;3735;50.136;11.062;2023-10-08T13:09:26;99112.00;;;14.00
7389;BMP180;3735;50.136;11.062;2023-10-08T13:11:53;99103.00;;;14.10
7389;BMP180;3735;50.136;11.062;2023-10-08T13:14:19;99095.00;;;14.00
7389;BMP180;3735;50.136;11.062;2023-10-08T13:16:44;99094.00;;;14.10
7389;BMP180;3735;50.136;11.062;2023-10-08T13:19:10;99086.00;;;14.40
7389;BMP180;3735;50.136;11.062;2023-10-08T13:21:36;99085.00;;;14.60
7389;BMP180;3735;50.136;11.062;2023-10-08T13:24:03;99085.00;;;14.60
7389;BMP180;3735;50.136;11.062;2023-10-08T13:26:31;99081.00;;;14.70
7389;BMP180;3735;50.136;11.062;2023-10-08T13:28:58;99078.00;;;14.70
7389;BMP180;3735;50.136;11.062;2023-10-08T13:31:24;99079.00;;;14.70
7389;BMP180;3735;50.136;11.062;2023-10-08T13:33:51;99082.00;;;14.80
7389;BMP180;3735;50.136;11.062;2023-10-08T13:36:18;99075.00;;;15.00
7389;BMP180;3735;50.136;11.062;2023-10-08T13:38:45;99063.00;;;15.10
7389;BMP180;3735;50.136;11.062;2023-10-08T13:41:14;99073.00;;;15.00
7389;BMP180;3735;50.136;11.062;2023-10-08T13:43:51;99081.00;;;15.10
7389;BMP180;3735;50.136;11.062;2023-10-08T13:46:27;99059.00;;;15.20
7389;BMP180;3735;50.136;11.062;2023-10-08T13:48:53;99089.00;;;15.20
7389;BMP180;3735;50.136;11.062;2023-10-08T13:51:21;99089.00;;;15.10
7389;BMP180;3735;50.136;11.062;2023-10-08T13:53:56;99077.00;;;15.20
7389;BMP180;3735;50.136;11.062;2023-10-08T13:56:27;99086.00;;;15.40
7389;BMP180;3735;50.136;11.062;2023-10-08T13:58:55;99089.00;;;15.20
7389;BMP180;3735;50.136;11.062;2023-10-08T14:01:33;99090.00;;;15.10
7389;BMP180;3735;50.136;11.062;2023-10-08T14:04:04;99076.00;;;15.00
7389;BMP180;3735;50.136;11.062;2023-10-08T14:06:32;99080.00;;;14.90
7389;BMP180;3735;50.136;11.062;2023-10-08T14:08:58;99067.00;;;14.80
7389;BMP180;3735;50.136;11.062;2023-10-08T14:11:26;99068.00;;;14.80
7389;BMP180;3735;50.136;11.062;2023-10-08T14:13:56;99061.00;;;14.70
7389;BMP180;3735;50.136;11.062;2023-10-08T14:16:24;99056.00;;;14.70
7389;BMP180;3735;50.136;11.062;2023-10-08T14:18:57;99060.00;;;14.70
7389;BMP180;3735;50.136;11.062;2023-10-08T14:21:26;99052.00;;;14.70
7389;BMP180;3735;50.136;11.062;2023-10-08T14:24:04;99059.00;;;14.70
7389;BMP180;3735;50.136;11.062;2023-10-08T14:26:31;99058.00;;;14.70
7389;BMP180;3735;50.136;11.062;2023-10-08T14:29:04;99064.00;;;14.50
7389;BMP180;3735;50.136;11.062;2023-10-08T14:31:43;99062.00;;;14.40
7389;BMP180;3735;50.136;11.062;2023-10-08T14:34:14;99073.00;;;14.30
7389;BMP180;3735;50.136;11.062;2023-10-08T14:36:45;99072.00;;;14.30
7389;BMP180;3735;50.136;11.062;2023-10-08T14:39:33;99066.00;;;14.20
7389;BMP180;3735;50.136;11.062;2023-10-08T14:42:18;99062.00;;;14.30
7389;BMP180;3735;50.136;11.062;2023-10-08T14:45:04;99067.00;;;14.30
7389;BMP180;3735;50.136;11.062;2023-10-08T14:47:38;99053.00;;;14.30
7389;BMP180;3735;50.136;11.062;2023-10-08T14:50:04;99050.00;;;14.30
7389;BMP180;3735;50.136;11.062;2023-10-08T14:52:31;99049.00;;;14.30
7389;BMP180;3735;50.136;11.062;2023-10-08T14:54:59;99038.00;;;14.40